createdAt,value
2023-05-19T00:01:19.450Z,69.10
2023-05-19T00:03:54.420Z,64.10
2023-05-19T00:06:31.832Z,61.00
2023-05-19T00:09:00.893Z,69.50
2023-05-19T00:11:28.349Z,65.10
2023-05-19T00:13:56.580Z,58.90
2023-05-19T00:16:24.934Z,50.80
2023-05-19T00:18:53.450Z,49.20
2023-05-19T00:21:22.830Z,45.80
2023-05-19T00:23:49.871Z,41.70
2023-05-19T00:26:16.874Z,34.60
2023-05-19T00:28:50.291Z,42.90
2023-05-19T00:31:17.353Z,56.60
2023-05-19T00:33:44.542Z,49.60
2023-05-19T00:36:11.501Z,56.60
2023-05-19T00:38:38.778Z,50.10
2023-05-19T00:41:06.202Z,46.20
2023-05-19T00:43:36.429Z,47.20
2023-05-19T00:46:03.619Z,35.80
2023-05-19T00:48:30.858Z,37.40
2023-05-19T00:51:04.870Z,33.30
2023-05-19T00:53:34.815Z,32.30
2023-05-19T00:56:02.438Z,41.80
2023-05-19T00:58:30.703Z,48.20
2023-05-19T01:01:03.859Z,58.90
2023-05-19T01:03:32.600Z,47.90
2023-05-19T01:06:05.058Z,49.80
2023-05-19T01:08:35.765Z,63.10
2023-05-19T01:11:02.840Z,67.90
2023-05-19T01:13:30.396Z,63.20
2023-05-19T01:16:14.500Z,75.00
2023-05-19T01:18:46.418Z,65.00
2023-05-19T01:21:19.402Z,68.90
2023-05-19T01:24:06.801Z,67.10
2023-05-19T01:27:11.620Z,81.50
2023-05-19T01:30:00.541Z,81.80
2023-05-19T01:32:27.579Z,76.00
2023-05-19T01:34:55.301Z,76.00
2023-05-19T01:37:23.100Z,71.40
2023-05-19T01:39:50.069Z,73.30
2023-05-19T01:42:17.147Z,63.80
2023-05-19T01:44:44.441Z,54.10
2023-05-19T01:47:11.431Z,58.50
2023-05-19T01:49:38.440Z,68.80
2023-05-19T01:52:06.025Z,45.30
2023-05-19T01:54:33.559Z,50.90
2023-05-19T01:57:06.617Z,50.50
2023-05-19T02:00:12.775Z,35.00
2023-05-19T02:02:59.358Z,38.20
2023-05-19T02:05:36.058Z,40.80
2023-05-19T02:08:13.791Z,35.90
2023-05-19T02:10:43.712Z,26.70
2023-05-19T02:13:11.578Z,36.00
2023-05-19T02:15:40.636Z,24.00
2023-05-19T02:18:10.263Z,24.50
2023-05-19T02:20:38.810Z,34.90
2023-05-19T02:23:07.181Z,23.30
2023-05-19T02:25:34.913Z,23.70
2023-05-19T02:28:01.955Z,22.40
2023-05-19T02:30:31.956Z,27.70
2023-05-19T02:33:00.903Z,25.60
2023-05-19T02:35:28.274Z,26.40
2023-05-19T02:37:55.231Z,28.30
2023-05-19T02:40:22.410Z,29.90
2023-05-19T02:42:49.835Z,36.30
2023-05-19T02:45:16.930Z,29.30
2023-05-19T02:47:43.997Z,27.80
2023-05-19T02:50:11.199Z,25.90
2023-05-19T02:52:38.153Z,24.10
2023-05-19T02:55:05.498Z,25.80
2023-05-19T02:57:33.413Z,33.30
2023-05-19T03:00:01.007Z,29.90
2023-05-19T03:02:28.133Z,28.80
2023-05-19T03:04:55.331Z,26.60
2023-05-19T03:07:25.469Z,31.00
2023-05-19T03:09:53.163Z,33.00
2023-05-19T03:12:20.337Z,34.50
2023-05-19T03:14:47.737Z,27.80
2023-05-19T03:17:14.724Z,22.90
2023-05-19T03:19:42.301Z,35.30
2023-05-19T03:22:09.225Z,34.60
2023-05-19T03:24:36.613Z,29.00
2023-05-19T03:27:05.996Z,32.30
2023-05-19T03:29:33.288Z,26.70
2023-05-19T03:32:00.488Z,31.10
2023-05-19T03:34:27.601Z,31.30
2023-05-19T03:36:57.102Z,31.50
2023-05-19T03:39:24.334Z,29.60
2023-05-19T03:41:51.685Z,25.50
2023-05-19T03:44:19.177Z,28.80
2023-05-19T03:46:46.298Z,23.90
2023-05-19T03:49:37.489Z,26.20
2023-05-19T03:52:04.526Z,33.40
2023-05-19T03:54:36.316Z,30.20
2023-05-19T03:57:03.571Z,31.60
2023-05-19T03:59:31.464Z,26.30
2023-05-19T04:01:58.569Z,26.50
2023-05-19T04:04:26.839Z,31.40
2023-05-19T04:06:53.926Z,31.80
2023-05-19T04:09:24.077Z,44.40
2023-05-19T04:11:51.064Z,31.40
2023-05-19T04:14:19.686Z,26.70
2023-05-19T04:16:46.647Z,24.90
2023-05-19T04:19:13.772Z,32.00
2023-05-19T04:21:41.091Z,36.30
2023-05-19T04:24:08.170Z,26.00
2023-05-19T04:26:35.370Z,36.60
2023-05-19T04:29:04.897Z,27.80
2023-05-19T04:31:34.649Z,33.30
2023-05-19T04:34:02.180Z,36.20
2023-05-19T04:36:29.607Z,25.50
2023-05-19T04:39:03.015Z,34.20
2023-05-19T04:41:30.807Z,32.60
2023-05-19T04:43:58.507Z,23.60
2023-05-19T04:46:26.834Z,33.80
2023-05-19T04:48:57.273Z,32.50
2023-05-19T04:51:29.832Z,24.90
2023-05-19T04:53:58.502Z,34.60
2023-05-19T04:56:27.560Z,35.40
2023-05-19T04:58:55.214Z,26.40
2023-05-19T05:01:26.490Z,27.00
2023-05-19T05:03:59.264Z,31.70
2023-05-19T05:06:26.695Z,31.30
2023-05-19T05:08:54.216Z,28.30
2023-05-19T05:11:22.440Z,36.60
2023-05-19T05:13:50.317Z,25.80
2023-05-19T05:16:17.648Z,25.50
2023-05-19T05:18:47.013Z,28.00
2023-05-19T05:21:14.392Z,30.90
2023-05-19T05:23:41.802Z,32.70
2023-05-19T05:26:11.555Z,34.90
2023-05-19T05:28:38.793Z,30.60
2023-05-19T05:31:06.072Z,25.90
2023-05-19T05:33:33.125Z,39.00
2023-05-19T05:36:00.316Z,41.00
2023-05-19T05:40:55.680Z,21.30
2023-05-19T05:43:22.866Z,23.50
2023-05-19T05:45:54.542Z,20.50
2023-05-19T05:48:22.344Z,25.30
2023-05-19T05:50:50.480Z,21.20
2023-05-19T05:53:20.538Z,31.60
2023-05-19T05:55:50.264Z,21.90
2023-05-19T05:58:17.550Z,21.90
2023-05-19T06:00:45.402Z,21.80
2023-05-19T06:03:13.619Z,22.70
2023-05-19T06:05:41.003Z,32.80
2023-05-19T06:08:08.717Z,28.60
2023-05-19T06:10:37.017Z,21.90
2023-05-19T06:13:05.757Z,28.70
2023-05-19T06:15:32.840Z,19.00
2023-05-19T06:18:13.603Z,24.00
2023-05-19T06:20:40.579Z,28.20
2023-05-19T06:23:07.621Z,22.00
2023-05-19T06:25:36.088Z,19.40
2023-05-19T06:28:03.713Z,19.30
2023-05-19T06:30:31.315Z,16.10
2023-05-19T06:33:21.142Z,23.80
2023-05-19T06:35:48.126Z,18.90
2023-05-19T06:38:15.381Z,20.70
2023-05-19T06:40:42.560Z,18.00
2023-05-19T06:43:09.858Z,16.10
2023-05-19T06:45:57.120Z,14.90
2023-05-19T06:50:52.667Z,17.10
2023-05-19T06:53:20.046Z,17.80
2023-05-19T06:55:58.583Z,17.40
2023-05-19T06:58:28.590Z,20.00
2023-05-19T07:00:56.041Z,24.40
2023-05-19T07:03:24.981Z,52.10
2023-05-19T07:05:52.331Z,20.20
2023-05-19T07:08:19.429Z,20.90
2023-05-19T07:10:46.596Z,17.80
2023-05-19T07:13:13.939Z,18.40
2023-05-19T07:15:41.338Z,22.00
2023-05-19T07:18:08.371Z,23.10
2023-05-19T07:20:35.927Z,21.60
2023-05-19T07:23:02.948Z,22.80
2023-05-19T07:25:30.783Z,18.20
2023-05-19T07:27:57.899Z,17.50
2023-05-19T07:30:25.285Z,23.40
2023-05-19T07:32:52.325Z,15.70
2023-05-19T07:35:20.563Z,14.00
2023-05-19T07:37:47.696Z,16.50
2023-05-19T07:40:14.731Z,15.00
2023-05-19T07:42:41.825Z,19.20
2023-05-19T07:45:09.410Z,20.40
2023-05-19T07:47:36.603Z,16.90
2023-05-19T07:50:04.157Z,22.50
2023-05-19T07:52:31.348Z,19.00
2023-05-19T07:54:59.341Z,21.20
2023-05-19T07:57:26.409Z,16.10
2023-05-19T07:59:53.374Z,20.90
2023-05-19T08:02:21.211Z,22.10
2023-05-19T08:04:49.605Z,16.80
2023-05-19T08:07:16.703Z,23.60
2023-05-19T08:09:43.745Z,20.20
2023-05-19T08:12:11.014Z,21.80
2023-05-19T08:14:38.101Z,23.00
2023-05-19T08:17:05.131Z,20.80
2023-05-19T08:19:33.534Z,24.10
2023-05-19T08:22:01.466Z,18.80
2023-05-19T08:24:33.049Z,21.00
2023-05-19T08:27:00.110Z,20.50
2023-05-19T08:29:27.255Z,25.50
2023-05-19T08:31:54.297Z,21.30
2023-05-19T08:34:21.306Z,17.30
2023-05-19T08:36:48.802Z,18.20
2023-05-19T08:39:18.394Z,19.90
2023-05-19T08:41:45.624Z,24.00
2023-05-19T08:44:12.587Z,40.60
2023-05-19T08:46:39.664Z,33.40
2023-05-19T08:49:11.456Z,32.00
2023-05-19T08:51:50.595Z,37.10
2023-05-19T08:54:18.701Z,41.00
2023-05-19T08:56:45.815Z,42.20
2023-05-19T08:59:14.191Z,41.60
2023-05-19T09:04:17.021Z,40.80
2023-05-19T09:06:45.346Z,38.60
2023-05-19T09:11:39.815Z,31.40
2023-05-19T09:14:06.849Z,21.20
2023-05-19T09:16:34.146Z,27.20
2023-05-19T09:19:01.427Z,28.80
2023-05-19T09:21:31.696Z,33.50
2023-05-19T09:23:59.482Z,36.00
2023-05-19T09:26:35.769Z,30.40
2023-05-19T09:29:03.385Z,57.90
2023-05-19T09:31:33.004Z,38.80
2023-05-19T09:34:00.222Z,45.80
2023-05-19T09:36:29.840Z,44.20
2023-05-19T09:38:56.977Z,29.70
2023-05-19T09:41:23.978Z,32.00
2023-05-19T09:43:55.065Z,28.70
2023-05-19T09:46:28.569Z,30.50
2023-05-19T09:48:58.886Z,24.80
2023-05-19T09:51:25.876Z,22.60
2023-05-19T09:53:53.686Z,21.80
2023-05-19T09:56:23.887Z,22.60
2023-05-19T09:58:50.875Z,23.50
2023-05-19T10:01:18.007Z,19.20
2023-05-19T10:03:45.036Z,22.70
2023-05-19T10:06:12.062Z,19.40
2023-05-19T10:08:39.821Z,28.60
2023-05-19T10:11:07.154Z,25.20
2023-05-19T10:13:36.051Z,32.00
2023-05-19T10:16:03.768Z,32.70
2023-05-19T10:18:30.864Z,30.50
2023-05-19T10:20:58.175Z,25.20
2023-05-19T10:23:25.628Z,24.00
2023-05-19T10:25:52.701Z,25.30
2023-05-19T10:28:21.230Z,26.10
2023-05-19T10:30:50.005Z,26.20
2023-05-19T10:33:18.315Z,27.80
2023-05-19T10:35:57.664Z,31.70
2023-05-19T10:38:34.413Z,28.30
2023-05-19T10:41:41.210Z,24.60
2023-05-19T10:44:14.403Z,23.30
2023-05-19T10:46:43.266Z,24.80
2023-05-19T10:49:10.363Z,27.20
2023-05-19T10:51:37.403Z,22.70
2023-05-19T10:54:11.014Z,23.50
2023-05-19T10:56:42.519Z,30.50
2023-05-19T10:59:09.605Z,24.50
2023-05-19T11:01:38.500Z,20.70
2023-05-19T11:04:14.104Z,19.00
2023-05-19T11:06:41.889Z,21.10
2023-05-19T11:09:08.837Z,20.90
2023-05-19T11:11:48.178Z,18.10
2023-05-19T11:14:19.398Z,21.60
2023-05-19T11:16:51.488Z,25.00
2023-05-19T11:19:48.371Z,22.80
2023-05-19T11:22:15.501Z,20.40
2023-05-19T11:24:53.511Z,22.90
2023-05-19T11:29:48.587Z,19.50
2023-05-19T11:32:15.781Z,22.50
2023-05-19T11:34:46.990Z,17.70
2023-05-19T11:37:14.081Z,20.50
2023-05-19T11:39:41.461Z,15.90
2023-05-19T11:42:11.829Z,17.70
2023-05-19T11:44:41.315Z,13.30
2023-05-19T11:47:08.728Z,17.50
2023-05-19T11:49:36.003Z,17.10
2023-05-19T11:52:03.779Z,21.10
2023-05-19T11:54:36.782Z,15.50
2023-05-19T11:57:04.076Z,13.60
2023-05-19T11:59:36.247Z,19.30
2023-05-19T12:02:18.394Z,12.10
2023-05-19T12:04:46.112Z,14.80
2023-05-19T12:07:14.034Z,14.20
2023-05-19T12:09:41.039Z,18.40
2023-05-19T12:12:08.589Z,12.30
2023-05-19T12:14:37.074Z,16.90
2023-05-19T12:17:14.227Z,13.80
2023-05-19T12:19:44.704Z,12.50
2023-05-19T12:22:11.730Z,15.40
2023-05-19T12:24:39.128Z,17.40
2023-05-19T12:27:07.749Z,24.30
2023-05-19T12:29:34.864Z,33.70
2023-05-19T12:32:01.941Z,28.80
2023-05-19T12:34:29.264Z,25.70
2023-05-19T12:36:56.241Z,21.70
2023-05-19T12:39:24.503Z,21.20
2023-05-19T12:44:18.576Z,12.80
2023-05-19T12:46:45.527Z,12.60
2023-05-19T12:49:12.768Z,14.70
2023-05-19T12:51:40.490Z,13.70
2023-05-19T12:54:08.236Z,23.60
2023-05-19T12:56:35.379Z,23.20
2023-05-19T12:59:02.417Z,13.70
2023-05-19T13:01:29.629Z,15.00
2023-05-19T13:03:57.374Z,14.60
2023-05-19T13:06:24.603Z,14.20
2023-05-19T13:08:51.602Z,12.20
2023-05-19T13:11:19.477Z,23.80
2023-05-19T13:13:47.324Z,12.60
2023-05-19T13:16:14.305Z,12.40
2023-05-19T13:18:41.358Z,11.90
2023-05-19T13:21:08.393Z,13.50
2023-05-19T13:23:35.625Z,13.70
2023-05-19T13:26:05.125Z,13.00
2023-05-19T13:28:32.160Z,11.30
2023-05-19T13:30:59.620Z,15.40
2023-05-19T13:33:26.785Z,14.30
2023-05-19T13:35:54.248Z,15.40
2023-05-19T13:38:21.210Z,13.90
2023-05-19T13:40:48.169Z,14.90
2023-05-19T13:43:15.350Z,25.50
2023-05-19T13:45:44.560Z,30.40
2023-05-19T13:48:12.294Z,30.30
2023-05-19T13:50:39.511Z,23.90
2023-05-19T13:53:06.672Z,24.40
2023-05-19T13:55:33.746Z,30.30
2023-05-19T13:58:00.772Z,27.60
2023-05-19T14:00:27.878Z,31.50
2023-05-19T14:02:55.262Z,25.50
2023-05-19T14:05:22.378Z,34.80
2023-05-19T14:07:49.835Z,30.80
2023-05-19T14:10:16.854Z,26.60
2023-05-19T14:13:04.855Z,15.00
2023-05-19T14:15:32.489Z,22.20
2023-05-19T14:17:59.488Z,22.10
2023-05-19T14:20:29.199Z,11.80
2023-05-19T14:22:56.519Z,13.20
2023-05-19T14:25:23.501Z,12.70
2023-05-19T14:27:50.816Z,12.10
2023-05-19T14:30:17.779Z,14.10
2023-05-19T14:32:44.936Z,16.10
2023-05-19T14:35:12.135Z,12.00
2023-05-19T14:37:39.066Z,15.10
2023-05-19T14:40:07.029Z,15.10
2023-05-19T14:42:34.018Z,16.30
2023-05-19T14:45:01.079Z,22.90
2023-05-19T14:47:28.208Z,24.10
2023-05-19T14:49:55.660Z,17.70
2023-05-19T14:52:23.056Z,16.60
2023-05-19T14:54:50.058Z,17.00
2023-05-19T14:57:17.045Z,16.70
2023-05-19T14:59:43.982Z,15.60
2023-05-19T15:02:12.102Z,19.80
2023-05-19T15:07:10.262Z,21.70
2023-05-19T15:09:38.275Z,14.50
2023-05-19T15:12:05.859Z,17.00
2023-05-19T15:14:32.985Z,11.80
2023-05-19T15:17:00.038Z,13.90
2023-05-19T15:19:27.289Z,21.50
2023-05-19T15:21:54.428Z,13.20
2023-05-19T15:24:21.542Z,13.60
2023-05-19T15:26:48.825Z,13.40
2023-05-19T15:29:15.936Z,12.70
2023-05-19T15:31:43.141Z,11.00
2023-05-19T15:34:10.401Z,11.60
2023-05-19T15:36:37.414Z,19.80
2023-05-19T15:39:05.184Z,12.80
2023-05-19T15:41:32.261Z,10.30
2023-05-19T15:44:00.722Z,13.80
2023-05-19T15:46:28.644Z,12.90
2023-05-19T15:48:56.033Z,9.90
2023-05-19T15:51:23.010Z,19.80
2023-05-19T15:53:50.046Z,21.50
2023-05-19T15:56:17.088Z,36.20
2023-05-19T15:58:44.638Z,25.90
2023-05-19T16:01:12.112Z,11.70
2023-05-19T16:03:39.285Z,11.70
2023-05-19T16:06:06.486Z,15.40
2023-05-19T16:08:33.458Z,18.30
2023-05-19T16:11:00.540Z,13.00
2023-05-19T16:13:27.869Z,11.80
2023-05-19T16:15:54.853Z,13.50
2023-05-19T16:18:22.923Z,16.70
2023-05-19T16:25:44.696Z,12.60
2023-05-19T16:28:12.002Z,14.60
2023-05-19T16:30:39.141Z,14.90
2023-05-19T16:33:06.403Z,12.50
2023-05-19T16:35:33.360Z,14.00
2023-05-19T16:38:00.368Z,12.50
2023-05-19T16:40:30.108Z,14.30
2023-05-19T16:42:58.035Z,14.60
2023-05-19T16:45:26.582Z,12.50
2023-05-19T16:47:53.816Z,11.80
2023-05-19T16:50:20.964Z,16.40
2023-05-19T16:52:47.906Z,12.90
2023-05-19T16:55:19.906Z,17.80
2023-05-19T16:57:47.386Z,15.10
2023-05-19T17:00:15.066Z,13.20
2023-05-19T17:02:42.209Z,14.30
2023-05-19T17:05:09.340Z,16.30
2023-05-19T17:07:36.372Z,16.50
2023-05-19T17:10:03.538Z,15.50
2023-05-19T17:12:30.680Z,15.40
2023-05-19T17:14:57.632Z,15.80
2023-05-19T17:17:24.673Z,15.20
2023-05-19T17:19:52.261Z,16.30
2023-05-19T17:22:19.591Z,17.20
2023-05-19T17:24:47.656Z,17.10
2023-05-19T17:27:15.274Z,18.20
2023-05-19T17:29:42.512Z,18.60
2023-05-19T17:32:09.592Z,21.00
2023-05-19T17:34:36.767Z,16.30
2023-05-19T17:37:04.050Z,24.00
2023-05-19T17:39:31.265Z,25.00
2023-05-19T17:41:58.329Z,24.60
2023-05-19T17:44:25.324Z,30.60
2023-05-19T17:46:52.775Z,27.60
2023-05-19T17:49:20.217Z,31.40
2023-05-19T17:51:47.388Z,35.70
2023-05-19T17:54:14.793Z,46.80
2023-05-19T17:56:43.130Z,45.90
2023-05-19T18:01:38.338Z,59.70
2023-05-19T18:04:06.081Z,52.70
2023-05-19T18:06:33.475Z,56.20
2023-05-19T18:09:01.396Z,59.10
2023-05-19T18:11:29.276Z,56.10
2023-05-19T18:13:57.534Z,54.20
2023-05-19T18:16:25.869Z,46.00
2023-05-19T18:18:53.128Z,60.10
2023-05-19T18:21:20.120Z,40.30
2023-05-19T18:23:48.037Z,45.30
2023-05-19T18:28:44.102Z,44.40
2023-05-19T18:31:17.602Z,33.80
2023-05-19T18:33:48.108Z,32.50
2023-05-19T18:36:16.871Z,30.00
2023-05-19T18:38:44.047Z,33.40
2023-05-19T18:41:10.952Z,38.50
2023-05-19T18:43:39.031Z,34.60
2023-05-19T18:46:06.329Z,40.00
2023-05-19T18:48:33.577Z,46.20
2023-05-19T18:51:00.697Z,43.50
2023-05-19T18:53:27.701Z,44.90
2023-05-19T18:55:54.824Z,45.10
2023-05-19T18:58:22.197Z,42.60
2023-05-19T19:00:49.269Z,52.20
2023-05-19T19:03:16.428Z,65.70
2023-05-19T19:05:44.366Z,68.60
2023-05-19T19:08:11.414Z,79.80
2023-05-19T19:10:40.782Z,85.50
2023-05-19T19:13:07.802Z,91.60
2023-05-19T19:15:35.103Z,110.60
2023-05-19T19:18:02.519Z,108.70
2023-05-19T19:20:29.952Z,119.80
2023-05-19T19:22:58.909Z,100.40
2023-05-19T19:25:25.876Z,98.20
2023-05-19T19:27:52.909Z,92.80
2023-05-19T19:30:20.018Z,92.70
2023-05-19T19:32:47.130Z,74.70
2023-05-19T19:35:14.241Z,67.80
2023-05-19T19:37:41.260Z,59.80
2023-05-19T19:40:09.773Z,48.50
2023-05-19T19:42:38.596Z,51.50
2023-05-19T19:45:06.792Z,44.00
2023-05-19T19:47:33.959Z,33.30
2023-05-19T19:50:02.851Z,30.40
2023-05-19T19:52:29.894Z,31.20
2023-05-19T19:54:57.428Z,35.80
2023-05-19T19:57:24.706Z,38.80
2023-05-19T19:59:55.365Z,44.50
2023-05-19T20:02:22.800Z,59.80
2023-05-19T20:04:49.967Z,65.70
2023-05-19T20:07:19.756Z,49.60
2023-05-19T20:09:47.186Z,47.70
2023-05-19T20:12:14.250Z,49.40
2023-05-19T20:14:41.280Z,37.10
2023-05-19T20:17:09.326Z,37.40
2023-05-19T20:19:36.413Z,30.00
2023-05-19T20:22:03.567Z,31.70
2023-05-19T20:24:30.481Z,34.00
2023-05-19T20:26:57.473Z,23.30
2023-05-19T20:29:24.530Z,17.10
2023-05-19T20:31:51.653Z,19.40
2023-05-19T20:34:18.726Z,15.40
2023-05-19T20:36:45.772Z,22.00
2023-05-19T20:39:12.996Z,21.10
2023-05-19T20:41:40.030Z,21.00
2023-05-19T20:44:08.628Z,18.60
2023-05-19T20:46:35.910Z,16.30
2023-05-19T20:49:03.333Z,16.90
2023-05-19T20:51:30.348Z,15.50
2023-05-19T20:53:57.333Z,16.70
2023-05-19T20:56:24.275Z,20.00
2023-05-19T20:58:51.389Z,19.70
2023-05-19T21:01:18.419Z,21.70
2023-05-19T21:03:45.517Z,13.10
2023-05-19T21:06:12.517Z,16.00
2023-05-19T21:08:39.509Z,15.80
2023-05-19T21:11:06.655Z,16.80
2023-05-19T21:13:33.965Z,15.30
2023-05-19T21:16:01.343Z,16.90
2023-05-19T21:18:28.921Z,22.90
2023-05-19T21:20:56.757Z,20.20
2023-05-19T21:23:23.728Z,25.30
2023-05-19T21:25:50.821Z,23.60
2023-05-19T21:28:17.934Z,28.20
2023-05-19T21:30:49.213Z,26.90
2023-05-19T21:33:17.400Z,38.30
2023-05-19T21:35:45.689Z,27.70
2023-05-19T21:38:23.407Z,32.40
2023-05-19T21:40:52.660Z,27.40
2023-05-19T21:45:46.619Z,25.80
2023-05-19T21:48:13.614Z,33.90
2023-05-19T21:50:40.752Z,41.60
2023-05-19T21:53:08.103Z,41.10
2023-05-19T21:55:35.248Z,41.50
2023-05-19T21:58:02.702Z,37.30
2023-05-19T22:00:30.050Z,32.70
2023-05-19T22:02:57.163Z,45.30
2023-05-19T22:05:24.416Z,34.70
2023-05-19T22:07:51.370Z,40.30
2023-05-19T22:10:18.408Z,46.70
2023-05-19T22:12:45.462Z,41.00
2023-05-19T22:15:13.606Z,34.80
2023-05-19T22:17:40.811Z,31.70
2023-05-19T22:20:08.694Z,23.30
2023-05-19T22:22:35.710Z,20.90
2023-05-19T22:25:03.093Z,17.00
2023-05-19T22:27:30.092Z,19.50
2023-05-19T22:29:57.431Z,17.10
2023-05-19T22:32:24.440Z,14.70
2023-05-19T22:34:51.766Z,13.80
2023-05-19T22:37:19.021Z,16.60
2023-05-19T22:39:46.194Z,11.90
2023-05-19T22:42:13.147Z,13.80
2023-05-19T22:44:40.173Z,15.00
2023-05-19T22:47:13.360Z,11.90
2023-05-19T22:49:43.580Z,16.20
2023-05-19T22:52:10.947Z,15.60
2023-05-19T22:54:38.156Z,17.10
2023-05-19T22:57:05.982Z,14.70
2023-05-19T22:59:32.990Z,11.20
2023-05-19T23:02:00.140Z,15.40
2023-05-19T23:04:27.382Z,12.30
2023-05-19T23:06:54.512Z,13.10
2023-05-19T23:09:22.058Z,13.70
2023-05-19T23:11:49.462Z,14.10
2023-05-19T23:14:16.544Z,13.80
2023-05-19T23:16:43.554Z,15.10
2023-05-19T23:19:10.623Z,10.90
2023-05-19T23:21:38.212Z,13.60
2023-05-19T23:24:06.628Z,14.10
2023-05-19T23:26:33.755Z,19.60
2023-05-19T23:29:00.829Z,10.50
2023-05-19T23:31:27.800Z,11.30
2023-05-19T23:33:54.874Z,11.90
2023-05-19T23:36:23.268Z,11.50
2023-05-19T23:41:17.368Z,19.40
2023-05-19T23:43:44.282Z,15.80
2023-05-19T23:46:11.456Z,16.20
2023-05-19T23:48:39.509Z,13.70
2023-05-19T23:51:06.686Z,12.60
2023-05-19T23:53:33.692Z,18.20
2023-05-19T23:56:00.635Z,20.90
2023-05-19T23:58:27.565Z,32.10
